createdAt,value
2019-05-28T00:00:02.367Z,14.00
2019-05-28T00:02:19.719Z,14.00
2019-05-28T00:04:38.953Z,14.00
2019-05-28T00:06:59.231Z,14.00
2019-05-28T00:09:18.209Z,14.00
2019-05-28T00:11:37.324Z,13.90
2019-05-28T00:13:56.482Z,13.90
2019-05-28T00:16:15.489Z,14.00
2019-05-28T00:18:34.580Z,13.90
2019-05-28T00:20:53.659Z,13.80
2019-05-28T00:23:12.691Z,13.80
2019-05-28T00:25:31.803Z,13.80
2019-05-28T00:27:50.905Z,13.90
2019-05-28T00:30:19.996Z,13.90
2019-05-28T00:32:31.640Z,13.80
2019-05-28T00:34:53.680Z,13.90
2019-05-28T00:37:12.917Z,13.90
2019-05-28T00:39:35.111Z,13.90
2019-05-28T00:41:54.176Z,13.90
2019-05-28T00:44:13.429Z,13.90
2019-05-28T00:46:32.567Z,13.90
2019-05-28T00:48:53.189Z,13.90
2019-05-28T00:51:14.274Z,13.90
2019-05-28T00:53:33.390Z,13.90
2019-05-28T00:55:55.369Z,13.80
2019-05-28T00:58:14.785Z,13.80
2019-05-28T01:00:46.064Z,13.90
2019-05-28T01:03:05.115Z,13.80
2019-05-28T01:05:25.817Z,13.80
2019-05-28T01:07:45.516Z,13.80
2019-05-28T01:10:06.121Z,13.80
2019-05-28T01:12:26.815Z,13.90
2019-05-28T01:14:47.460Z,13.90
2019-05-28T01:17:06.589Z,13.80
2019-05-28T01:19:27.376Z,13.80
2019-05-28T01:21:46.495Z,13.80
2019-05-28T01:24:07.702Z,13.80
2019-05-28T01:26:26.764Z,13.70
2019-05-28T01:28:45.819Z,13.80
2019-05-28T01:31:04.880Z,13.80
2019-05-28T01:33:23.907Z,13.80
2019-05-28T01:35:42.962Z,13.80
2019-05-28T01:38:03.045Z,13.80
2019-05-28T01:40:23.337Z,13.70
2019-05-28T01:42:42.481Z,13.80
2019-05-28T01:45:01.566Z,13.70
2019-05-28T01:47:20.511Z,13.70
2019-05-28T01:49:40.975Z,13.60
2019-05-28T01:52:00.018Z,13.60
2019-05-28T01:54:21.991Z,13.70
2019-05-28T01:56:40.984Z,13.70
2019-05-28T01:59:00.923Z,13.70
2019-05-28T02:01:20.855Z,13.70
2019-05-28T02:03:42.106Z,13.70
2019-05-28T02:06:01.097Z,13.70
2019-05-28T02:08:20.173Z,13.70
2019-05-28T02:10:39.433Z,13.70
2019-05-28T02:12:58.460Z,13.70
2019-05-28T02:15:17.646Z,13.70
2019-05-28T02:17:36.586Z,13.70
2019-05-28T02:19:55.597Z,13.70
2019-05-28T02:22:14.598Z,13.70
2019-05-28T02:24:34.686Z,13.80
2019-05-28T02:26:53.786Z,13.80
2019-05-28T02:29:12.863Z,13.90
2019-05-28T02:31:31.833Z,13.90
2019-05-28T02:33:50.758Z,13.90
2019-05-28T02:36:09.855Z,13.90
2019-05-28T02:38:28.779Z,13.80
2019-05-28T02:40:47.724Z,13.80
2019-05-28T02:43:06.671Z,13.80
2019-05-28T02:45:25.732Z,13.80
2019-05-28T02:47:44.692Z,13.80
2019-05-28T02:50:05.262Z,13.80
2019-05-28T02:52:25.432Z,13.80
2019-05-28T02:54:44.557Z,13.80
2019-05-28T02:57:03.677Z,13.80
2019-05-28T02:59:25.100Z,13.70
2019-05-28T03:01:45.041Z,13.70
2019-05-28T03:04:04.406Z,13.70
2019-05-28T03:06:25.167Z,13.70
2019-05-28T03:08:45.066Z,13.70
2019-05-28T03:11:04.760Z,13.60
2019-05-28T03:13:23.851Z,13.60
2019-05-28T03:15:44.348Z,13.60
2019-05-28T03:18:03.599Z,13.60
2019-05-28T03:20:22.526Z,13.60
2019-05-28T03:22:42.557Z,13.50
2019-05-28T03:25:02.392Z,13.50
2019-05-28T03:27:22.334Z,13.40
2019-05-28T03:29:41.295Z,13.50
2019-05-28T03:32:07.892Z,13.50
2019-05-28T03:34:21.981Z,13.50
2019-05-28T03:36:40.971Z,13.60
2019-05-28T03:39:00.269Z,13.60
2019-05-28T03:41:21.728Z,13.60
2019-05-28T03:43:40.740Z,13.60
2019-05-28T03:45:59.782Z,13.60
2019-05-28T03:48:18.778Z,13.50
2019-05-28T03:50:37.764Z,13.50
2019-05-28T03:52:56.698Z,13.50
2019-05-28T03:55:15.719Z,13.50
2019-05-28T03:57:34.699Z,13.50
2019-05-28T03:59:57.013Z,13.50
2019-05-28T04:02:23.034Z,13.50
2019-05-28T04:04:35.076Z,13.50
2019-05-28T04:06:54.009Z,13.50
2019-05-28T04:09:13.046Z,13.40
2019-05-28T04:11:44.423Z,13.50
2019-05-28T04:13:52.627Z,13.40
2019-05-28T04:16:11.539Z,13.40
2019-05-28T04:18:32.282Z,13.40
2019-05-28T04:20:51.315Z,13.40
2019-05-28T04:23:17.023Z,13.40
2019-05-28T04:25:36.127Z,13.30
2019-05-28T04:27:55.064Z,13.30
2019-05-28T04:30:16.576Z,13.30
2019-05-28T04:32:40.433Z,13.30
2019-05-28T04:34:56.355Z,13.30
2019-05-28T04:37:15.313Z,13.30
2019-05-28T04:39:35.458Z,13.30
2019-05-28T04:41:54.583Z,13.30
2019-05-28T04:44:16.612Z,13.40
2019-05-28T04:46:37.819Z,13.40
2019-05-28T04:48:59.903Z,13.40
2019-05-28T04:51:18.923Z,13.30
2019-05-28T04:53:39.401Z,13.40
2019-05-28T04:55:58.434Z,13.30
2019-05-28T04:58:36.794Z,13.30
2019-05-28T05:00:55.783Z,13.30
2019-05-28T05:03:15.086Z,13.30
2019-05-28T05:05:34.082Z,13.30
2019-05-28T05:07:53.103Z,13.30
2019-05-28T05:10:13.059Z,13.30
2019-05-28T05:12:32.083Z,13.30
2019-05-28T05:14:51.070Z,13.30
2019-05-28T05:17:10.154Z,13.40
2019-05-28T05:19:32.350Z,13.40
2019-05-28T05:21:51.312Z,13.40
2019-05-28T05:24:12.887Z,13.40
2019-05-28T05:26:31.918Z,13.30
2019-05-28T05:28:50.957Z,13.30
2019-05-28T05:31:10.038Z,13.40
2019-05-28T05:33:29.000Z,13.40
2019-05-28T05:35:48.019Z,13.40
2019-05-28T05:38:06.992Z,13.40
2019-05-28T05:40:26.208Z,13.40
2019-05-28T05:42:45.284Z,13.40
2019-05-28T05:45:07.987Z,13.40
2019-05-28T05:47:26.987Z,13.30
2019-05-28T05:49:46.017Z,13.30
2019-05-28T05:52:05.118Z,13.30
2019-05-28T05:54:24.043Z,13.30
2019-05-28T05:56:43.082Z,13.20
2019-05-28T05:59:05.059Z,13.30
2019-05-28T06:01:24.914Z,13.30
2019-05-28T06:03:43.944Z,13.30
2019-05-28T06:06:02.993Z,13.30
2019-05-28T06:08:22.060Z,13.30
2019-05-28T06:10:41.080Z,13.30
2019-05-28T06:13:00.077Z,13.20
2019-05-28T06:15:19.608Z,13.30
2019-05-28T06:17:38.736Z,13.30
2019-05-28T06:19:58.505Z,13.30
2019-05-28T06:22:19.250Z,13.30
2019-05-28T06:24:38.259Z,13.30
2019-05-28T06:26:58.465Z,13.40
2019-05-28T06:29:18.404Z,13.40
2019-05-28T06:31:37.405Z,13.50
2019-05-28T06:33:57.925Z,13.50
2019-05-28T06:36:18.573Z,13.50
2019-05-28T06:38:37.674Z,13.50
2019-05-28T06:40:56.674Z,13.60
2019-05-28T06:43:15.887Z,13.60
2019-05-28T06:45:34.996Z,13.60
2019-05-28T06:47:53.922Z,13.60
2019-05-28T06:50:13.057Z,13.60
2019-05-28T06:52:32.083Z,13.60
2019-05-28T06:54:51.230Z,13.70
2019-05-28T06:57:22.367Z,13.70
2019-05-28T06:59:30.857Z,13.80
2019-05-28T07:01:49.820Z,13.70
2019-05-28T07:04:13.944Z,13.80
2019-05-28T07:06:29.500Z,13.70
2019-05-28T07:08:48.472Z,13.80
2019-05-28T07:11:07.466Z,13.70
2019-05-28T07:13:26.549Z,13.70
2019-05-28T07:15:45.683Z,13.70
2019-05-28T07:18:04.741Z,13.70
2019-05-28T07:20:23.837Z,13.70
2019-05-28T07:22:42.941Z,13.70
2019-05-28T07:25:01.959Z,13.70
2019-05-28T07:27:20.966Z,13.70
2019-05-28T07:29:40.034Z,13.70
2019-05-28T07:31:59.010Z,13.70
2019-05-28T07:34:30.191Z,13.80
2019-05-28T07:36:38.661Z,13.80
2019-05-28T07:38:57.688Z,13.80
2019-05-28T07:41:16.747Z,13.70
2019-05-28T07:43:35.862Z,13.70
2019-05-28T07:45:54.881Z,13.70
2019-05-28T07:48:13.909Z,13.80
2019-05-28T07:50:32.922Z,13.80
2019-05-28T07:52:51.950Z,13.80
2019-05-28T07:55:11.826Z,13.90
2019-05-28T07:57:30.848Z,13.90
2019-05-28T07:59:50.000Z,14.00
2019-05-28T08:02:09.027Z,14.10
2019-05-28T08:04:28.057Z,14.10
2019-05-28T08:06:54.762Z,14.20
2019-05-28T08:09:07.930Z,14.30
2019-05-28T08:11:26.875Z,14.30
2019-05-28T08:13:45.878Z,14.30
2019-05-28T08:16:17.670Z,14.40
2019-05-28T08:18:25.662Z,14.40
2019-05-28T08:20:44.664Z,14.40
2019-05-28T08:23:03.737Z,14.40
2019-05-28T08:25:44.814Z,14.60
2019-05-28T08:27:43.381Z,14.60
2019-05-28T08:30:02.422Z,14.70
2019-05-28T08:32:21.599Z,14.80
2019-05-28T08:34:40.669Z,14.90
2019-05-28T08:37:06.033Z,15.00
2019-05-28T08:39:20.353Z,15.00
2019-05-28T08:41:39.353Z,14.90
2019-05-28T08:43:58.397Z,14.90
2019-05-28T08:46:17.375Z,14.90
2019-05-28T08:48:36.545Z,14.90
2019-05-28T08:50:55.528Z,14.90
2019-05-28T08:53:14.505Z,14.90
2019-05-28T08:55:33.601Z,14.90
2019-05-28T08:57:52.672Z,15.00
2019-05-28T09:00:12.076Z,15.00
2019-05-28T09:02:31.064Z,15.10
2019-05-28T09:04:50.111Z,15.10
2019-05-28T09:07:09.132Z,15.10
2019-05-28T09:09:28.149Z,15.10
2019-05-28T09:11:47.088Z,15.20
2019-05-28T09:14:06.164Z,15.20
2019-05-28T09:16:25.101Z,15.20
2019-05-28T09:18:45.239Z,15.20
2019-05-28T09:21:04.583Z,15.30
2019-05-28T09:23:23.690Z,15.20
2019-05-28T09:25:42.781Z,15.20
2019-05-28T09:28:02.025Z,15.10
2019-05-28T09:30:21.371Z,15.30
2019-05-28T09:32:40.464Z,15.20
2019-05-28T09:35:02.521Z,15.30
2019-05-28T09:37:20.094Z,15.30
2019-05-28T09:39:39.066Z,15.20
2019-05-28T09:41:58.109Z,15.30
2019-05-28T09:44:17.182Z,15.20
2019-05-28T09:46:36.220Z,15.20
2019-05-28T09:48:55.290Z,15.20
2019-05-28T09:51:14.348Z,15.10
2019-05-28T09:53:35.025Z,15.20
2019-05-28T09:55:54.336Z,15.20
2019-05-28T09:58:13.341Z,15.20
2019-05-28T10:00:34.078Z,15.20
2019-05-28T10:02:53.317Z,15.30
2019-05-28T10:05:12.367Z,15.30
2019-05-28T10:07:31.450Z,15.40
2019-05-28T10:09:50.583Z,15.50
2019-05-28T10:12:09.620Z,15.60
2019-05-28T10:14:28.663Z,15.70
2019-05-28T10:16:47.636Z,15.60
2019-05-28T10:19:06.665Z,15.70
2019-05-28T10:21:25.660Z,15.70
2019-05-28T10:23:44.713Z,15.80
2019-05-28T10:26:03.888Z,15.80
2019-05-28T10:28:22.879Z,15.80
2019-05-28T10:30:41.878Z,16.00
2019-05-28T10:33:01.021Z,16.10
2019-05-28T10:35:21.645Z,16.20
2019-05-28T10:37:40.572Z,16.30
2019-05-28T10:39:59.591Z,16.30
2019-05-28T10:42:18.647Z,16.40
2019-05-28T10:44:37.610Z,16.40
2019-05-28T10:46:56.668Z,16.40
2019-05-28T10:49:15.612Z,16.40
2019-05-28T10:51:35.732Z,16.40
2019-05-28T10:53:54.799Z,16.50
2019-05-28T10:56:13.845Z,16.60
2019-05-28T10:58:32.938Z,16.70
2019-05-28T11:00:51.976Z,16.70
2019-05-28T11:03:10.972Z,16.80
2019-05-28T11:05:30.042Z,16.70
2019-05-28T11:07:49.258Z,16.60
2019-05-28T11:10:23.041Z,16.70
2019-05-28T11:12:29.410Z,16.70
2019-05-28T11:14:48.450Z,16.70
2019-05-28T11:17:07.530Z,16.80
2019-05-28T11:19:26.488Z,16.80
2019-05-28T11:21:45.560Z,16.90
2019-05-28T11:24:07.322Z,17.00
2019-05-28T11:26:26.353Z,17.10
2019-05-28T11:28:45.401Z,17.10
2019-05-28T11:31:06.003Z,17.20
2019-05-28T11:33:25.068Z,17.10
2019-05-28T11:35:44.070Z,17.10
2019-05-28T11:38:03.165Z,17.10
2019-05-28T11:40:22.345Z,16.90
2019-05-28T11:42:41.452Z,17.00
2019-05-28T11:45:00.523Z,17.10
2019-05-28T11:47:19.541Z,17.00
2019-05-28T11:49:38.619Z,17.20
2019-05-28T11:51:58.635Z,17.40
2019-05-28T11:54:17.717Z,17.60
2019-05-28T11:56:36.700Z,17.50
2019-05-28T11:58:55.736Z,17.60
2019-05-28T12:01:32.758Z,17.50
2019-05-28T12:03:35.497Z,17.60
2019-05-28T12:05:54.506Z,17.70
2019-05-28T12:08:13.528Z,17.70
2019-05-28T12:10:34.104Z,17.60
2019-05-28T12:12:53.162Z,17.60
2019-05-28T12:15:13.122Z,17.40
2019-05-28T12:17:42.439Z,17.40
2019-05-28T12:19:54.580Z,17.20
2019-05-28T12:22:13.614Z,17.10
2019-05-28T12:24:33.718Z,17.10
2019-05-28T12:26:52.848Z,17.10
2019-05-28T12:29:14.618Z,17.10
2019-05-28T12:31:33.713Z,17.00
2019-05-28T12:33:52.664Z,17.00
2019-05-28T12:36:11.700Z,16.90
2019-05-28T12:38:30.937Z,16.90
2019-05-28T12:40:49.956Z,17.00
2019-05-28T12:43:09.057Z,17.10
2019-05-28T12:48:07.507Z,17.20
2019-05-28T12:48:26.033Z,17.20
2019-05-28T12:50:19.670Z,17.30
2019-05-28T12:52:30.544Z,17.40
2019-05-28T12:54:49.603Z,17.50
2019-05-28T12:57:08.725Z,17.50
2019-05-28T12:59:27.898Z,17.60
2019-05-28T13:01:46.998Z,17.70
2019-05-28T13:04:06.293Z,17.80
2019-05-28T13:06:25.292Z,17.70
2019-05-28T13:08:45.771Z,17.90
2019-05-28T13:11:06.418Z,18.10
2019-05-28T13:13:26.388Z,18.40
2019-05-28T13:15:45.424Z,18.50
2019-05-28T13:18:04.800Z,18.60
2019-05-28T13:20:23.917Z,18.70
2019-05-28T13:22:42.932Z,18.90
2019-05-28T13:25:02.008Z,19.10
2019-05-28T13:27:21.102Z,19.00
2019-05-28T13:29:40.155Z,18.90
2019-05-28T13:31:59.113Z,19.00
2019-05-28T13:34:18.118Z,19.10
2019-05-28T13:36:37.117Z,19.40
2019-05-28T13:38:56.162Z,19.30
2019-05-28T13:41:15.113Z,19.40
2019-05-28T13:43:35.152Z,20.10
2019-05-28T13:45:54.220Z,20.30
2019-05-28T13:48:14.408Z,20.50
2019-05-28T13:50:33.513Z,20.60
2019-05-28T13:52:52.588Z,20.80
2019-05-28T13:55:11.792Z,20.90
2019-05-28T13:57:30.786Z,20.80
2019-05-28T13:59:50.761Z,21.00
2019-05-28T14:02:12.667Z,21.10
2019-05-28T14:04:31.706Z,20.50
2019-05-28T14:06:50.792Z,20.60
2019-05-28T14:09:10.948Z,20.70
2019-05-28T14:11:29.869Z,20.70
2019-05-28T14:13:48.885Z,20.90
2019-05-28T14:16:07.835Z,20.80
2019-05-28T14:18:26.837Z,20.90
2019-05-28T14:20:45.957Z,21.10
2019-05-28T14:23:05.015Z,21.20
2019-05-28T14:25:24.030Z,21.40
2019-05-28T14:27:43.198Z,21.40
2019-05-28T14:30:02.266Z,21.30
2019-05-28T14:32:21.274Z,21.20
2019-05-28T14:34:40.303Z,20.90
2019-05-28T14:36:59.776Z,20.60
2019-05-28T14:39:18.809Z,20.50
2019-05-28T14:41:38.861Z,20.40
2019-05-28T14:44:00.631Z,20.30
2019-05-28T14:46:19.630Z,20.40
2019-05-28T14:48:38.622Z,20.30
2019-05-28T14:50:57.577Z,20.30
2019-05-28T14:53:18.135Z,20.00
2019-05-28T14:55:37.157Z,19.80
2019-05-28T14:57:58.993Z,19.70
2019-05-28T15:00:18.326Z,19.60
2019-05-28T15:02:38.974Z,19.50
2019-05-28T15:04:58.078Z,19.40
2019-05-28T15:07:20.175Z,19.30
2019-05-28T15:09:39.195Z,19.10
2019-05-28T15:11:58.301Z,19.00
2019-05-28T15:14:17.264Z,18.90
2019-05-28T15:16:36.593Z,18.80
2019-05-28T15:18:55.775Z,18.80
2019-05-28T15:21:14.828Z,18.80
2019-05-28T15:23:33.940Z,18.80
2019-05-28T15:25:53.625Z,18.60
2019-05-28T15:28:12.708Z,18.50
2019-05-28T15:30:31.893Z,18.40
2019-05-28T15:32:50.867Z,18.40
2019-05-28T15:35:10.637Z,18.40
2019-05-28T15:37:29.659Z,18.30
2019-05-28T15:39:48.585Z,18.30
2019-05-28T15:42:07.945Z,18.30
2019-05-28T15:44:27.202Z,18.20
2019-05-28T15:46:46.259Z,18.10
2019-05-28T15:49:05.302Z,18.10
2019-05-28T15:51:24.227Z,18.20
2019-05-28T15:53:45.351Z,18.20
2019-05-28T15:56:04.415Z,18.20
2019-05-28T15:58:23.411Z,18.20
2019-05-28T16:00:42.444Z,18.00
2019-05-28T16:03:01.499Z,17.90
2019-05-28T16:05:20.588Z,18.10
2019-05-28T16:07:39.651Z,18.20
2019-05-28T16:09:58.702Z,18.20
2019-05-28T16:12:23.189Z,18.20
2019-05-28T16:14:43.362Z,18.10
2019-05-28T16:17:02.537Z,18.10
2019-05-28T16:19:21.465Z,17.90
2019-05-28T16:21:40.486Z,17.80
2019-05-28T16:23:59.600Z,17.70
2019-05-28T16:26:18.654Z,17.70
2019-05-28T16:28:37.709Z,17.60
2019-05-28T16:31:11.976Z,17.60
2019-05-28T16:33:17.310Z,17.60
2019-05-28T16:35:37.924Z,17.60
2019-05-28T16:37:57.053Z,17.60
2019-05-28T16:40:17.351Z,17.40
2019-05-28T16:42:36.536Z,17.40
2019-05-28T16:44:56.385Z,17.30
2019-05-28T16:47:18.626Z,17.20
2019-05-28T16:49:36.588Z,17.10
2019-05-28T16:51:55.541Z,17.20
2019-05-28T16:54:19.120Z,17.20
2019-05-28T16:56:35.506Z,17.20
2019-05-28T16:58:54.681Z,17.10
2019-05-28T17:01:22.545Z,17.10
2019-05-28T17:03:34.737Z,17.00
2019-05-28T17:05:54.000Z,17.00
2019-05-28T17:08:15.041Z,17.00
2019-05-28T17:10:34.007Z,16.90
2019-05-28T17:12:53.200Z,16.80
2019-05-28T17:15:12.298Z,16.70
2019-05-28T17:17:31.553Z,16.70
2019-05-28T17:19:50.613Z,16.70
2019-05-28T17:22:09.938Z,16.70
2019-05-28T17:24:29.134Z,16.70
2019-05-28T17:26:48.124Z,16.70
2019-05-28T17:29:07.180Z,16.60
2019-05-28T17:31:26.205Z,16.70
2019-05-28T17:33:45.126Z,16.60
2019-05-28T17:36:04.467Z,16.60
2019-05-28T17:38:23.502Z,16.60
2019-05-28T17:40:48.390Z,16.60
2019-05-28T17:43:04.612Z,16.50
2019-05-28T17:45:24.309Z,16.60
2019-05-28T17:47:44.432Z,16.50
2019-05-28T17:50:04.978Z,16.50
2019-05-28T17:52:23.978Z,16.40
2019-05-28T17:54:43.029Z,16.40
2019-05-28T17:57:02.125Z,16.40
2019-05-28T17:59:21.210Z,16.40
2019-05-28T18:01:40.236Z,16.40
2019-05-28T18:04:00.395Z,16.40
2019-05-28T18:06:19.475Z,16.50
2019-05-28T18:08:38.564Z,16.40
2019-05-28T18:11:04.317Z,16.40
2019-05-28T18:13:18.144Z,16.40
2019-05-28T18:15:37.231Z,16.40
2019-05-28T18:17:56.239Z,16.30
2019-05-28T18:20:15.863Z,16.40
2019-05-28T18:22:34.864Z,16.40
2019-05-28T18:24:53.969Z,16.30
2019-05-28T18:27:13.132Z,16.20
2019-05-28T18:29:32.199Z,16.20
2019-05-28T18:31:51.290Z,16.20
2019-05-28T18:34:10.320Z,16.20
2019-05-28T18:36:29.369Z,16.20
2019-05-28T18:38:48.382Z,16.20
2019-05-28T18:41:20.562Z,16.30
2019-05-28T18:43:28.082Z,16.20
2019-05-28T18:45:47.223Z,16.10
2019-05-28T18:48:06.234Z,15.90
2019-05-28T18:50:25.336Z,15.70
2019-05-28T18:52:45.983Z,15.70
2019-05-28T18:55:06.513Z,15.60
2019-05-28T18:57:25.543Z,15.60
2019-05-28T18:59:44.851Z,15.60
2019-05-28T19:02:04.182Z,15.60
2019-05-28T19:04:23.313Z,15.50
2019-05-28T19:06:43.182Z,15.60
2019-05-28T19:09:02.149Z,15.50
2019-05-28T19:11:36.899Z,15.60
2019-05-28T19:13:43.010Z,15.60
2019-05-28T19:16:02.161Z,15.60
2019-05-28T19:18:21.151Z,15.50
2019-05-28T19:20:40.206Z,15.50
2019-05-28T19:22:59.288Z,15.40
2019-05-28T19:25:18.471Z,15.40
2019-05-28T19:27:37.456Z,15.40
2019-05-28T19:29:56.494Z,15.30
2019-05-28T19:32:15.510Z,15.30
2019-05-28T19:34:34.796Z,15.30
2019-05-28T19:36:56.507Z,15.20
2019-05-28T19:39:15.659Z,15.20
2019-05-28T19:41:36.164Z,15.10
2019-05-28T19:43:55.219Z,15.10
2019-05-28T19:46:14.217Z,15.00
2019-05-28T19:48:33.373Z,15.10
2019-05-28T19:50:52.457Z,15.00
2019-05-28T19:53:11.490Z,14.90
2019-05-28T19:55:30.595Z,14.90
2019-05-28T19:57:49.721Z,14.90
2019-05-28T20:00:10.557Z,14.90
2019-05-28T20:02:29.701Z,14.90
2019-05-28T20:04:48.692Z,14.90
2019-05-28T20:07:07.891Z,14.80
2019-05-28T20:09:27.001Z,14.80
2019-05-28T20:11:46.027Z,14.80
2019-05-28T20:14:06.168Z,14.80
2019-05-28T20:16:25.118Z,14.70
2019-05-28T20:18:45.174Z,14.70
2019-05-28T20:21:04.317Z,14.60
2019-05-28T20:23:23.374Z,14.50
2019-05-28T20:25:42.414Z,14.50
2019-05-28T20:28:01.391Z,14.40
2019-05-28T20:30:21.484Z,14.40
2019-05-28T20:32:41.545Z,14.30
2019-05-28T20:35:01.456Z,14.30
2019-05-28T20:37:21.268Z,14.30
2019-05-28T20:39:41.621Z,14.20
2019-05-28T20:42:01.894Z,14.10
2019-05-28T20:44:21.036Z,14.00
2019-05-28T20:46:40.922Z,14.00
2019-05-28T20:49:00.615Z,14.00
2019-05-28T20:51:21.959Z,14.00
2019-05-28T20:53:40.853Z,14.00
2019-05-28T20:56:00.408Z,14.00
2019-05-28T20:58:19.916Z,13.90
2019-05-28T21:00:39.122Z,13.90
2019-05-28T21:02:58.352Z,13.80
2019-05-28T21:05:17.479Z,13.80
2019-05-28T21:07:36.537Z,13.70
2019-05-28T21:09:56.525Z,13.70
2019-05-28T21:12:15.524Z,13.70
2019-05-28T21:14:37.432Z,13.70
2019-05-28T21:16:57.264Z,13.70
2019-05-28T21:19:16.280Z,13.70
2019-05-28T21:21:36.343Z,13.60
2019-05-28T21:23:55.873Z,13.60
2019-05-28T21:26:15.165Z,13.40
2019-05-28T21:28:34.266Z,13.50
2019-05-28T21:30:54.601Z,13.40
2019-05-28T21:33:15.006Z,13.40
2019-05-28T21:35:35.756Z,13.50
2019-05-28T21:37:55.127Z,13.50
2019-05-28T21:40:14.340Z,13.40
2019-05-28T21:42:35.573Z,13.50
2019-05-28T21:44:56.441Z,13.40
2019-05-28T21:47:15.576Z,13.30
2019-05-28T21:49:34.647Z,13.30
2019-05-28T21:51:54.575Z,13.30
2019-05-28T21:54:13.811Z,13.30
2019-05-28T21:56:33.138Z,13.30
2019-05-28T21:58:53.355Z,13.20
2019-05-28T22:01:14.280Z,13.20
2019-05-28T22:03:36.540Z,13.20
2019-05-28T22:05:55.837Z,13.10
2019-05-28T22:08:15.911Z,13.10
2019-05-28T22:10:36.539Z,13.10
2019-05-28T22:12:57.712Z,13.10
2019-05-28T22:15:17.628Z,13.10
2019-05-28T22:17:40.103Z,13.10
2019-05-28T22:20:00.294Z,13.10
2019-05-28T22:22:19.717Z,13.10
2019-05-28T22:24:38.807Z,13.20
2019-05-28T22:26:58.688Z,13.20
2019-05-28T22:29:19.493Z,13.20
2019-05-28T22:31:38.876Z,13.20
2019-05-28T22:33:58.990Z,13.20
2019-05-28T22:36:18.460Z,13.10
2019-05-28T22:38:37.619Z,13.10
2019-05-28T22:40:58.627Z,13.00
2019-05-28T22:43:30.686Z,13.10
2019-05-28T22:45:42.800Z,13.10
2019-05-28T22:48:02.259Z,13.10
2019-05-28T22:50:23.468Z,13.10
2019-05-28T22:52:42.985Z,13.00
2019-05-28T22:55:02.186Z,13.00
2019-05-28T22:57:21.742Z,13.00
2019-05-28T22:59:40.894Z,13.00
2019-05-28T23:02:00.903Z,13.00
2019-05-28T23:04:20.039Z,13.10
2019-05-28T23:06:39.029Z,13.00
2019-05-28T23:09:01.438Z,13.10
2019-05-28T23:11:21.879Z,13.10
2019-05-28T23:13:46.919Z,13.00
2019-05-28T23:16:02.699Z,13.00
2019-05-28T23:18:21.956Z,12.90
2019-05-28T23:20:40.941Z,12.90
2019-05-28T23:23:00.949Z,12.80
2019-05-28T23:25:20.063Z,12.90
2019-05-28T23:27:39.071Z,12.90
2019-05-28T23:29:58.082Z,12.80
2019-05-28T23:32:17.155Z,12.80
2019-05-28T23:34:36.142Z,12.70
2019-05-28T23:36:55.331Z,12.70
2019-05-28T23:39:14.315Z,12.70
2019-05-28T23:41:33.297Z,12.70
2019-05-28T23:44:01.616Z,12.70
2019-05-28T23:46:14.143Z,12.70
2019-05-28T23:48:33.268Z,12.70
2019-05-28T23:50:52.333Z,12.70
2019-05-28T23:53:11.753Z,12.70
2019-05-28T23:55:30.745Z,12.70
2019-05-28T23:57:49.733Z,12.70
